Time;durP1;ratioP1;P1;durP2;ratioP2;P2;SDS_P1;SDS_P2;PMS_P1;PMS_P2;Temp;Humidity;BMP_temperature;BMP_pressure;BME280_temperature;BME280_humidity;BME280_pressure;Samples;Min_cycle;Max_cycle;Signal;HPM_P1;HPM_P2
2021/10/06 00:00:21;;;;;;;18.70;8.63;;;;;;;15.79;66.16;100912.95;1754729;81;21077;-84
2021/10/06 00:02:50;;;;;;;17.73;8.70;;;;;;;15.73;66.21;100916.86;1754646;80;21725;-85
2021/10/06 00:05:17;;;;;;;23.18;10.15;;;;;;;15.70;66.32;100916.83;1766360;80;21619;-86
2021/10/06 00:07:44;;;;;;;11.95;8.78;;;;;;;15.70;66.42;100912.85;1785949;79;21083;-85
2021/10/06 00:10:17;;;;;;;22.67;9.53;;;;;;;15.73;66.45;100912.47;1754687;81;21231;-85
2021/10/06 00:12:42;;;;;;;14.80;8.95;;;;;;;15.75;66.46;100917.80;1785212;78;21046;-84
2021/10/06 00:15:10;;;;;;;19.15;8.93;;;;;;;15.78;66.44;100922.22;1785820;80;21058;-84
2021/10/06 00:17:38;;;;;;;16.93;9.75;;;;;;;15.79;66.41;100923.56;1785553;80;21954;-85
2021/10/06 00:20:08;;;;;;;17.62;8.88;;;;;;;15.79;66.34;100925.34;1765205;80;21074;-85
2021/10/06 00:22:35;;;;;;;18.25;9.15;;;;;;;15.78;66.32;100919.56;1785211;80;21129;-84
2021/10/06 00:25:02;;;;;;;23.83;9.43;;;;;;;15.77;66.30;100925.32;1791625;79;21073;-84
2021/10/06 00:27:29;;;;;;;17.40;8.83;;;;;;;15.74;66.25;100923.97;1794370;79;21121;-84
2021/10/06 00:29:56;;;;;;;19.70;8.85;;;;;;;15.68;66.20;100922.58;1794621;79;21746;-84
2021/10/06 00:32:27;;;;;;;15.43;9.60;;;;;;;15.59;66.20;100927.36;1794063;79;21050;-84
2021/10/06 00:34:56;;;;;;;13.60;9.08;;;;;;;15.51;66.28;100919.35;1793008;79;21671;-84
2021/10/06 00:37:23;;;;;;;16.17;9.15;;;;;;;15.48;66.36;100928.59;1794219;78;21094;-84
2021/10/06 00:39:52;;;;;;;18.07;9.40;;;;;;;15.46;66.42;100919.75;1794933;79;21691;-84
2021/10/06 00:42:24;;;;;;;13.78;9.33;;;;;;;15.46;66.50;100927.70;1794579;79;21767;-84
2021/10/06 00:44:52;;;;;;;18.77;9.50;;;;;;;15.44;66.48;100927.25;1794745;79;21113;-83
2021/10/06 00:47:19;;;;;;;19.05;9.48;;;;;;;15.40;66.51;100928.11;1778593;79;21059;-84
2021/10/06 00:49:48;;;;;;;15.98;9.53;;;;;;;15.36;66.56;100927.20;1793842;79;21066;-83
2021/10/06 00:52:15;;;;;;;19.25;9.55;;;;;;;15.32;66.57;100932.91;1794715;79;21117;-84
2021/10/06 00:54:43;;;;;;;21.90;8.70;;;;;;;15.29;66.62;100933.32;1794569;79;21758;-85
2021/10/06 00:57:11;;;;;;;21.70;9.10;;;;;;;15.25;66.62;100935.50;1794530;79;21573;-84
2021/10/06 00:59:42;;;;;;;21.57;9.25;;;;;;;15.20;66.73;100939.42;1778260;79;22317;-85
2021/10/06 01:02:11;;;;;;;21.93;9.78;;;;;;;15.18;66.90;100941.17;1794651;79;21248;-85
2021/10/06 01:04:38;;;;;;;12.20;8.88;;;;;;;15.21;66.96;100942.98;1794615;79;21089;-84
2021/10/06 01:07:05;;;;;;;16.93;9.55;;;;;;;15.22;66.97;100941.67;1794789;79;22415;-84
2021/10/06 01:09:32;;;;;;;17.65;9.38;;;;;;;15.23;66.98;100939.45;1794428;78;21962;-85
2021/10/06 01:11:59;;;;;;;20.82;9.08;;;;;;;15.23;66.97;100938.58;1794368;79;21102;-85
2021/10/06 01:14:26;;;;;;;22.13;9.18;;;;;;;15.21;66.97;100937.23;1794617;79;21623;-85
2021/10/06 01:16:53;;;;;;;19.98;10.50;;;;;;;15.18;66.97;100934.55;1794970;79;21069;-85
2021/10/06 01:19:25;;;;;;;19.50;9.70;;;;;;;15.15;67.04;100932.77;1779167;79;21715;-85
2021/10/06 01:21:53;;;;;;;21.35;9.85;;;;;;;15.15;67.06;100938.52;1778790;79;21042;-84
2021/10/06 01:24:20;;;;;;;18.02;10.75;;;;;;;15.12;67.09;100949.95;1791704;79;21042;-83
2021/10/06 01:26:52;;;;;;;20.15;10.32;;;;;;;15.10;67.16;100938.89;1784337;80;21086;-83
2021/10/06 01:29:20;;;;;;;20.60;9.88;;;;;;;15.10;67.17;100938.45;1785467;80;21070;-83
2021/10/06 01:31:52;;;;;;;24.23;9.88;;;;;;;15.07;67.16;100941.09;1785658;78;21760;-83
2021/10/06 01:34:19;;;;;;;17.65;10.13;;;;;;;15.06;67.22;100949.03;1785619;80;21580;-83
2021/10/06 01:36:49;;;;;;;13.25;9.63;;;;;;;15.04;67.23;100949.01;1753926;81;22413;-84
2021/10/06 01:39:16;;;;;;;19.30;9.35;;;;;;;15.03;67.25;100942.36;1785240;79;21054;-84
2021/10/06 01:41:43;;;;;;;18.10;9.98;;;;;;;15.03;67.34;100946.34;1765693;80;21067;-84
2021/10/06 01:44:21;;;;;;;13.53;9.85;;;;;;;15.04;67.35;100949.01;1785859;80;21805;-84
2021/10/06 01:46:50;;;;;;;16.23;8.98;;;;;;;15.04;67.34;100948.13;1785641;79;21055;-84
2021/10/06 01:49:15;;;;;;;12.10;9.20;;;;;;;15.03;67.34;100942.36;1785444;79;21070;-84
2021/10/06 01:51:43;;;;;;;26.85;11.83;;;;;;;15.03;67.38;100945.01;1785284;78;21051;-84
2021/10/06 01:54:10;;;;;;;18.42;10.05;;;;;;;15.03;67.48;100949.87;1786087;80;20987;-85
2021/10/06 01:56:38;;;;;;;17.65;9.88;;;;;;;15.08;67.47;100956.11;1785701;78;22491;-84
2021/10/06 01:59:07;;;;;;;16.30;8.95;;;;;;;15.11;67.47;100953.95;1767870;80;21027;-85
2021/10/06 02:01:33;;;;;;;18.90;10.50;;;;;;;15.13;67.46;100951.75;1785777;80;21058;-84
2021/10/06 02:04:00;;;;;;;16.42;9.70;;;;;;;15.18;67.46;100958.85;1785705;80;21066;-83
2021/10/06 02:06:29;;;;;;;23.62;9.73;;;;;;;15.21;67.44;100959.77;1767926;80;21129;-84
2021/10/06 02:08:59;;;;;;;23.70;10.28;;;;;;;15.25;67.37;100957.59;1785491;80;21751;-84
2021/10/06 02:11:29;;;;;;;18.50;10.18;;;;;;;15.29;67.31;100962.05;1785399;79;21066;-84
2021/10/06 02:13:56;;;;;;;26.82;10.35;;;;;;;15.32;67.25;100964.73;1786427;80;21126;-83
2021/10/06 02:16:23;;;;;;;17.17;9.88;;;;;;;15.35;67.18;100964.77;1786363;79;21078;-83
2021/10/06 02:18:49;;;;;;;16.70;10.80;;;;;;;15.35;67.12;100963.45;1786587;80;21082;-83
2021/10/06 02:21:16;;;;;;;21.40;10.28;;;;;;;15.36;67.11;100957.25;1786715;79;21764;-85
2021/10/06 02:23:43;;;;;;;19.32;10.53;;;;;;;15.37;67.07;100960.78;1786521;80;20976;-84
2021/10/06 02:26:10;;;;;;;18.37;10.48;;;;;;;15.38;67.04;100963.02;1785857;80;20996;-85
2021/10/06 02:28:38;;;;;;;19.92;9.50;;;;;;;15.38;66.96;100972.30;1785825;80;21017;-85
2021/10/06 02:31:09;;;;;;;17.55;10.50;;;;;;;15.35;66.95;100963.45;1784922;79;21611;-84
2021/10/06 02:33:35;;;;;;;25.68;10.38;;;;;;;15.34;66.90;100973.59;1785889;79;21796;-84
2021/10/06 02:36:02;;;;;;;18.60;10.10;;;;;;;15.34;66.88;100974.04;1786268;80;21336;-84
2021/10/06 02:38:29;;;;;;;16.10;8.95;;;;;;;15.33;66.90;100969.18;1786129;79;21528;-84
2021/10/06 02:40:56;;;;;;;21.00;10.32;;;;;;;15.35;66.82;100966.52;1786047;79;21109;-84
2021/10/06 02:43:23;;;;;;;22.80;10.95;;;;;;;15.33;66.81;100965.20;1786147;80;21043;-84
2021/10/06 02:45:50;;;;;;;19.75;10.98;;;;;;;15.32;66.74;100967.39;1786368;80;21764;-83
2021/10/06 02:48:16;;;;;;;16.73;9.93;;;;;;;15.27;66.58;100969.55;1786582;79;21090;-83
2021/10/06 02:50:48;;;;;;;18.98;9.68;;;;;;;15.19;66.55;100972.58;1767292;80;21043;-83
2021/10/06 02:53:13;;;;;;;19.70;10.50;;;;;;;15.11;66.57;100977.81;1786375;79;21498;-82
2021/10/06 02:55:40;;;;;;;28.70;10.93;;;;;;;15.02;66.61;100973.29;1786502;79;21062;-83
2021/10/06 02:58:10;;;;;;;18.30;10.38;;;;;;;14.97;66.66;100979.84;1786554;80;21825;-84
2021/10/06 03:00:36;;;;;;;20.45;11.05;;;;;;;14.91;66.66;100974.49;1786380;79;21460;-83
2021/10/06 03:03:03;;;;;;;19.27;10.10;;;;;;;14.87;66.76;100975.34;1786559;80;21054;-83
2021/10/06 03:05:30;;;;;;;15.43;9.73;;;;;;;14.84;66.85;100980.59;1786352;78;21058;-82
2021/10/06 03:07:57;;;;;;;17.12;10.58;;;;;;;14.86;66.91;100977.97;1786440;79;21093;-82
2021/10/06 03:10:28;;;;;;;20.90;9.73;;;;;;;14.86;66.88;100976.64;1767839;80;21024;-82
2021/10/06 03:12:55;;;;;;;23.02;10.25;;;;;;;14.85;66.87;100984.16;1786203;79;21126;-82
2021/10/06 03:15:22;;;;;;;16.40;9.90;;;;;;;14.77;66.80;100994.23;1786258;78;21039;-82
2021/10/06 03:17:49;;;;;;;19.10;9.50;;;;;;;14.72;66.86;100999.02;1786163;80;21043;-82
2021/10/06 03:20:16;;;;;;;20.88;11.30;;;;;;;14.66;66.85;100999.83;1786418;79;21526;-82
2021/10/06 03:22:43;;;;;;;20.77;9.88;;;;;;;14.57;66.89;100993.97;1786495;79;21742;-83
2021/10/06 03:25:12;;;;;;;15.85;10.60;;;;;;;14.51;66.99;100995.64;1785646;79;21639;-83
2021/10/06 03:27:39;;;;;;;24.30;9.60;;;;;;;14.50;67.15;101000.03;1784326;79;21093;-83
2021/10/06 03:30:07;;;;;;;23.27;10.08;;;;;;;14.53;67.23;101004.05;1784966;80;21061;-83
2021/10/06 03:32:34;;;;;;;17.67;10.35;;;;;;;14.58;67.32;101007.69;1784870;80;21067;-83
2021/10/06 03:35:05;;;;;;;21.07;9.18;;;;;;;14.63;67.32;101009.50;1784976;80;21803;-83
2021/10/06 03:37:30;;;;;;;19.05;10.03;;;;;;;14.68;67.29;101009.13;1784851;79;21122;-83
2021/10/06 03:39:57;;;;;;;16.02;9.98;;;;;;;14.71;67.27;101015.77;1785151;80;21074;-83
2021/10/06 03:42:24;;;;;;;17.55;9.60;;;;;;;14.76;67.22;101027.33;1785195;80;21063;-83
2021/10/06 03:44:51;;;;;;;17.20;9.58;;;;;;;14.77;67.14;101018.48;1785255;80;21016;-83
2021/10/06 03:47:18;;;;;;;17.50;9.75;;;;;;;14.77;67.09;101020.73;1785184;80;21765;-82
2021/10/06 03:49:45;;;;;;;19.30;9.95;;;;;;;14.76;67.05;101026.87;1784979;80;21603;-82
2021/10/06 03:52:12;;;;;;;20.60;10.30;;;;;;;14.76;67.06;101037.48;1785073;80;21364;-83
2021/10/06 03:54:42;;;;;;;21.20;9.85;;;;;;;14.75;67.08;101042.76;1784887;80;21046;-82
2021/10/06 03:57:07;;;;;;;16.52;9.25;;;;;;;14.76;67.11;101043.22;1769697;80;21051;-82
2021/10/06 03:59:34;;;;;;;19.40;9.43;;;;;;;14.76;67.11;101043.22;1784891;80;22788;-83
2021/10/06 04:02:01;;;;;;;22.70;10.00;;;;;;;14.74;67.10;101034.38;1785062;80;21031;-84
2021/10/06 04:04:29;;;;;;;17.27;9.58;;;;;;;14.78;67.04;101042.36;1785365;79;21314;-85
2021/10/06 04:06:55;;;;;;;22.40;10.45;;;;;;;14.79;67.02;101043.28;1785586;80;21036;-85
2021/10/06 04:09:24;;;;;;;16.93;9.93;;;;;;;14.80;66.94;101045.04;1770491;80;21034;-84
2021/10/06 04:11:54;;;;;;;21.33;10.08;;;;;;;14.82;66.96;101042.41;1784943;80;21741;-83
2021/10/06 04:14:20;;;;;;;23.07;10.60;;;;;;;14.82;66.84;101032.69;1784786;79;21295;-83
2021/10/06 04:16:48;;;;;;;18.02;8.95;;;;;;;14.84;66.82;101040.67;1770841;80;21506;-84
2021/10/06 04:19:18;;;;;;;16.32;9.73;;;;;;;14.84;66.78;101039.34;1785111;79;21057;-84
2021/10/06 04:21:45;;;;;;;19.62;9.30;;;;;;;14.82;66.75;101044.62;1787330;79;21042;-83
2021/10/06 04:24:16;;;;;;;24.02;10.43;;;;;;;14.84;66.77;101048.17;1770827;80;21089;-83
2021/10/06 04:26:43;;;;;;;19.82;12.05;;;;;;;14.85;66.73;101047.77;1786125;77;21026;-81
2021/10/06 04:29:11;;;;;;;22.73;11.00;;;;;;;14.86;66.69;101054.37;1786193;79;21023;-80
2021/10/06 04:31:40;;;;;;;19.25;9.50;;;;;;;14.86;66.63;101053.05;1786374;79;21004;-82
2021/10/06 04:34:12;;;;;;;22.95;9.73;;;;;;;14.86;66.62;101054.37;1770429;80;21070;-82
2021/10/06 04:36:41;;;;;;;16.75;9.48;;;;;;;14.85;66.52;101055.27;1785958;79;22058;-85
2021/10/06 04:39:08;;;;;;;18.00;10.70;;;;;;;14.77;66.42;101059.56;1786806;79;21477;-81
2021/10/06 04:41:35;;;;;;;19.65;10.53;;;;;;;14.70;66.47;101066.56;1786658;79;21067;-79
2021/10/06 04:44:03;;;;;;;18.95;11.15;;;;;;;14.67;66.57;101076.23;1786430;79;21030;-82
2021/10/06 04:46:33;;;;;;;21.23;10.82;;;;;;;14.68;66.67;101072.72;1786257;79;21087;-83
2021/10/06 04:49:02;;;;;;;17.87;10.90;;;;;;;14.68;66.70;101076.25;1786372;79;21097;-81
2021/10/06 04:51:29;;;;;;;19.10;10.78;;;;;;;14.69;66.71;101079.78;1786513;79;21090;-81
2021/10/06 04:53:56;;;;;;;20.55;11.15;;;;;;;14.69;66.70;101078.45;1786271;79;21604;-82
2021/10/06 04:56:23;;;;;;;26.20;10.72;;;;;;;14.71;66.70;101085.98;1786391;79;21054;-82
2021/10/06 04:58:50;;;;;;;20.48;10.38;;;;;;;14.73;66.72;101093.52;1786444;79;21701;-81
2021/10/06 05:01:17;;;;;;;17.82;10.78;;;;;;;14.75;66.73;101097.08;1772948;80;21734;-81
2021/10/06 05:03:47;;;;;;;22.70;10.98;;;;;;;14.78;66.70;101105.96;1786358;79;21003;-81
2021/10/06 05:06:13;;;;;;;18.57;10.40;;;;;;;14.80;66.67;101112.61;1786988;79;21026;-82
2021/10/06 05:08:40;;;;;;;20.00;10.13;;;;;;;14.82;66.67;101112.64;1786389;79;21015;-82
2021/10/06 05:11:06;;;;;;;23.98;10.23;;;;;;;14.83;66.62;101113.08;1786285;79;21590;-82
2021/10/06 05:13:34;;;;;;;20.12;10.55;;;;;;;14.85;66.62;101114.90;1786552;79;21761;-83
2021/10/06 05:16:00;;;;;;;20.00;10.98;;;;;;;14.86;66.59;101117.11;1785403;80;21043;-84
2021/10/06 05:18:29;;;;;;;17.45;9.70;;;;;;;14.87;66.57;101127.73;1781118;79;21063;-81
2021/10/06 05:20:56;;;;;;;21.37;10.32;;;;;;;14.86;66.51;101121.96;1784752;80;21114;-81
2021/10/06 05:23:23;;;;;;;20.72;10.58;;;;;;;14.88;66.46;101126.84;1784625;79;21466;-81
2021/10/06 05:25:50;;;;;;;24.07;11.70;;;;;;;14.87;66.50;101122.43;1784446;79;21797;-81
2021/10/06 05:28:17;;;;;;;17.77;10.75;;;;;;;14.86;66.47;101125.94;1784352;79;21054;-81
2021/10/06 05:30:43;;;;;;;20.20;10.85;;;;;;;14.86;66.47;101126.38;1784720;80;21054;-81
2021/10/06 05:33:10;;;;;;;22.90;10.80;;;;;;;14.88;66.49;101131.27;1784713;79;21035;-81
2021/10/06 05:35:37;;;;;;;17.10;10.23;;;;;;;14.91;66.46;101133.97;1784619;79;21012;-81
2021/10/06 05:38:06;;;;;;;23.05;11.40;;;;;;;14.92;66.46;101136.64;1770586;80;21143;-81
2021/10/06 05:40:33;;;;;;;20.97;10.50;;;;;;;14.93;66.44;101140.17;1784403;80;21094;-81
2021/10/06 05:43:03;;;;;;;19.20;10.93;;;;;;;14.93;66.41;101146.36;1784403;79;21572;-81
2021/10/06 05:45:28;;;;;;;23.10;10.55;;;;;;;14.94;66.40;101146.83;1784111;79;21068;-81
2021/10/06 05:47:58;;;;;;;18.65;10.50;;;;;;;14.94;66.38;101154.78;1784754;79;21074;-81
2021/10/06 05:50:25;;;;;;;22.35;9.85;;;;;;;14.96;66.46;101152.16;1784603;79;21745;-81
2021/10/06 05:52:52;;;;;;;21.68;11.55;;;;;;;14.97;66.41;101156.57;1784618;79;21067;-81
2021/10/06 05:55:18;;;;;;;20.77;10.68;;;;;;;14.98;66.40;101162.34;1784729;80;21050;-81
2021/10/06 05:57:45;;;;;;;19.32;10.30;;;;;;;15.00;66.42;101168.96;1784765;79;21090;-81
2021/10/06 06:00:13;;;;;;;14.28;9.83;;;;;;;15.00;66.42;101168.96;1784931;79;21012;-81
2021/10/06 06:02:45;;;;;;;24.35;10.88;;;;;;;15.01;66.41;101169.44;1784628;80;21771;-81
2021/10/06 06:05:15;;;;;;;21.25;10.93;;;;;;;15.01;66.36;101164.13;1784825;79;21106;-81
2021/10/06 06:07:42;;;;;;;16.40;10.55;;;;;;;15.03;66.42;101170.34;1784555;79;21071;-81
2021/10/06 06:10:09;;;;;;;21.82;10.68;;;;;;;15.03;66.37;101163.72;1784589;80;21031;-81
2021/10/06 06:12:36;;;;;;;19.12;10.82;;;;;;;15.05;66.33;101167.27;1784540;80;21627;-81
2021/10/06 06:15:04;;;;;;;23.20;10.60;;;;;;;15.00;66.37;101159.27;1784568;79;21779;-81
2021/10/06 06:17:30;;;;;;;20.80;10.75;;;;;;;15.08;66.33;101172.63;1784459;80;21098;-81
2021/10/06 06:19:57;;;;;;;17.90;9.65;;;;;;;15.08;66.33;101181.91;1784565;79;21066;-81
2021/10/06 06:22:24;;;;;;;23.87;11.03;;;;;;;15.09;66.28;101185.00;1784548;80;21087;-81
2021/10/06 06:24:51;;;;;;;18.05;11.18;;;;;;;15.07;66.29;101191.63;1784697;80;21055;-81
2021/10/06 06:27:18;;;;;;;18.87;10.55;;;;;;;15.07;66.31;101190.72;1785915;79;22534;-81
2021/10/06 06:29:45;;;;;;;18.25;10.70;;;;;;;15.06;66.32;101187.62;1786045;79;21340;-82
2021/10/06 06:32:12;;;;;;;22.42;11.40;;;;;;;15.09;66.33;101187.65;1786394;79;21035;-81
2021/10/06 06:34:39;;;;;;;21.20;10.88;;;;;;;15.08;66.29;101192.07;1786285;80;21043;-81
2021/10/06 06:37:06;;;;;;;21.40;11.97;;;;;;;15.08;66.28;101206.66;1786092;80;21015;-81
2021/10/06 06:39:32;;;;;;;21.00;11.50;;;;;;;15.09;66.32;101208.86;1785872;80;21745;-81
2021/10/06 06:42:01;;;;;;;19.35;11.53;;;;;;;15.11;66.34;101209.80;1786026;80;21587;-81
2021/10/06 06:44:28;;;;;;;20.37;10.82;;;;;;;15.14;66.30;101212.48;1786447;79;21043;-81
2021/10/06 06:46:55;;;;;;;17.60;10.13;;;;;;;15.13;66.16;101213.36;1786378;80;21087;-81
2021/10/06 06:49:24;;;;;;;17.62;10.75;;;;;;;15.11;66.09;101219.97;1786143;79;21113;-81
2021/10/06 06:51:51;;;;;;;19.37;11.80;;;;;;;15.08;66.11;101223.00;1786207;79;22062;-81
2021/10/06 06:54:18;;;;;;;17.00;9.95;;;;;;;15.06;66.10;101226.95;1786295;79;21035;-81
2021/10/06 06:56:45;;;;;;;21.02;11.20;;;;;;;15.06;66.15;101226.08;1786309;80;21588;-81
2021/10/06 06:59:12;;;;;;;19.52;11.53;;;;;;;15.08;66.17;101224.33;1786402;79;20972;-81
2021/10/06 07:01:39;;;;;;;18.98;11.10;;;;;;;15.13;66.17;101222.20;1786252;80;21560;-81
2021/10/06 07:04:06;;;;;;;19.25;11.73;;;;;;;15.19;66.10;101229.34;1786420;79;21725;-81
2021/10/06 07:06:34;;;;;;;21.87;10.98;;;;;;;15.24;66.06;101228.98;1786340;79;21266;-81
2021/10/06 07:09:03;;;;;;;19.85;10.08;;;;;;;15.26;65.89;101228.98;1786341;80;21588;-81
2021/10/06 07:11:30;;;;;;;19.75;10.03;;;;;;;15.27;65.82;101230.77;1786547;79;21039;-81
2021/10/06 07:13:56;;;;;;;26.25;11.40;;;;;;;15.30;65.79;101234.80;1786492;80;21058;-81
2021/10/06 07:16:23;;;;;;;20.95;10.75;;;;;;;15.33;65.75;101235.74;1786419;80;22149;-81
2021/10/06 07:18:50;;;;;;;20.08;10.28;;;;;;;15.35;65.66;101238.39;1786423;78;22415;-81
2021/10/06 07:21:17;;;;;;;17.87;10.82;;;;;;;15.36;65.69;101242.39;1786463;80;21000;-81
2021/10/06 07:23:44;;;;;;;22.17;10.75;;;;;;;15.37;65.59;101248.58;1768725;80;21078;-81
2021/10/06 07:26:16;;;;;;;18.80;10.50;;;;;;;15.38;65.60;101246.84;1783919;79;21068;-81
2021/10/06 07:28:43;;;;;;;19.35;10.18;;;;;;;15.38;65.52;101237.11;1776652;80;21999;-81
2021/10/06 07:31:10;;;;;;;16.85;9.70;;;;;;;15.39;65.52;101248.20;1776802;80;21080;-81
2021/10/06 07:33:37;;;;;;;22.55;10.38;;;;;;;15.43;65.52;101250.01;1776662;80;21079;-81
2021/10/06 07:36:04;;;;;;;17.37;9.60;;;;;;;15.45;65.46;101258.88;1776855;80;21063;-81
2021/10/06 07:38:31;;;;;;;15.68;9.63;;;;;;;15.51;65.49;101263.37;1776911;80;21106;-81
2021/10/06 07:40:58;;;;;;;17.50;10.20;;;;;;;15.57;65.42;101257.25;1776778;80;21761;-81
2021/10/06 07:43:24;;;;;;;16.75;9.70;;;;;;;15.63;65.39;101260.85;1776547;80;21094;-81
2021/10/06 07:45:51;;;;;;;21.17;10.20;;;;;;;15.67;65.28;101265.35;1776591;80;21070;-81
2021/10/06 07:48:18;;;;;;;16.27;9.65;;;;;;;15.70;65.31;101270.67;1776453;80;21055;-81
2021/10/06 07:50:45;;;;;;;22.45;10.38;;;;;;;15.77;65.22;101281.42;1776456;80;21601;-81
2021/10/06 07:53:12;;;;;;;23.45;10.58;;;;;;;15.81;65.14;101288.10;1776633;80;21738;-81
2021/10/06 07:55:39;;;;;;;16.12;11.00;;;;;;;15.82;65.07;101292.97;1776026;80;21677;-81
2021/10/06 07:58:05;;;;;;;19.70;10.32;;;;;;;15.85;65.04;101293.02;1776424;80;21561;-81
2021/10/06 08:00:32;;;;;;;16.87;9.70;;;;;;;15.86;64.94;101301.41;1776467;80;21078;-82
2021/10/06 08:02:59;;;;;;;19.02;10.50;;;;;;;15.88;65.00;101306.34;1776760;80;21128;-82
2021/10/06 08:05:26;;;;;;;17.57;10.35;;;;;;;15.95;64.92;101313.48;1776354;80;21735;-81
2021/10/06 08:07:53;;;;;;;16.97;9.73;;;;;;;16.00;64.87;101308.23;1776623;80;21609;-82
2021/10/06 08:10:20;;;;;;;24.20;11.30;;;;;;;16.04;64.70;101315.36;1776848;80;21055;-82
2021/10/06 08:12:47;;;;;;;19.65;10.68;;;;;;;16.05;64.66;101311.84;1776617;80;21357;-82
2021/10/06 08:15:14;;;;;;;21.52;10.53;;;;;;;16.09;64.65;101314.53;1776893;80;21075;-82
2021/10/06 08:17:41;;;;;;;16.37;9.65;;;;;;;16.15;64.60;101317.70;1776889;80;22406;-81
2021/10/06 08:20:08;;;;;;;16.15;10.10;;;;;;;16.18;64.44;101320.81;1776789;80;20984;-82
2021/10/06 08:22:36;;;;;;;22.02;10.30;;;;;;;16.21;64.44;101328.83;1776780;80;21608;-82
2021/10/06 08:25:03;;;;;;;18.65;8.75;;;;;;;16.19;64.33;101326.15;1776543;80;21130;-82
2021/10/06 08:27:29;;;;;;;21.05;9.90;;;;;;;16.16;64.21;101321.23;1782901;79;21539;-82
2021/10/06 08:29:57;;;;;;;18.17;10.75;;;;;;;16.14;64.18;101319.89;1786203;80;21793;-81
2021/10/06 08:32:24;;;;;;;19.30;10.23;;;;;;;16.13;64.27;101325.64;1785981;80;21048;-81
2021/10/06 08:34:50;;;;;;;23.67;11.05;;;;;;;16.20;64.28;101336.33;1786202;79;21067;-82
2021/10/06 08:37:20;;;;;;;16.07;9.45;;;;;;;16.32;64.29;101330.72;1786200;79;21034;-81
2021/10/06 08:39:46;;;;;;;14.65;9.68;;;;;;;16.52;64.21;101332.27;1785837;79;21086;-82
2021/10/06 08:42:16;;;;;;;19.65;10.08;;;;;;;16.73;64.10;101331.13;1786048;79;21742;-82
2021/10/06 08:44:46;;;;;;;13.35;8.48;;;;;;;16.91;63.88;101332.63;1785967;79;21497;-82
2021/10/06 08:47:14;;;;;;;17.92;9.18;;;;;;;17.06;63.71;101329.20;1786286;80;20991;-82
2021/10/06 08:49:43;;;;;;;16.62;9.93;;;;;;;17.22;63.37;101332.43;1786227;80;21038;-82
2021/10/06 08:52:10;;;;;;;14.15;9.68;;;;;;;17.33;63.09;101335.17;1786424;79;21128;-82
2021/10/06 08:54:37;;;;;;;17.48;10.30;;;;;;;17.35;62.89;101337.84;1786231;79;21693;-82
2021/10/06 08:57:04;;;;;;;16.07;9.40;;;;;;;17.31;62.62;101344.91;1785961;79;21559;-82
2021/10/06 08:59:31;;;;;;;17.80;9.38;;;;;;;17.27;62.59;101349.77;1786245;80;21099;-82
2021/10/06 09:02:11;;;;;;;20.32;10.43;;;;;;;17.22;62.50;101349.72;1786265;79;21110;-82
2021/10/06 09:04:38;;;;;;;18.02;9.23;;;;;;;17.19;62.51;101353.71;1770133;79;21063;-82
2021/10/06 09:07:05;;;;;;;20.97;9.73;;;;;;;17.20;62.60;101350.16;1786277;79;21869;-82
2021/10/06 09:09:38;;;;;;;19.40;11.75;;;;;;;17.27;62.56;101358.63;1786093;80;21031;-82
2021/10/06 09:12:13;;;;;;;19.20;10.45;;;;;;;17.36;62.54;101355.16;1786551;78;21245;-81
2021/10/06 09:14:45;;;;;;;19.98;10.03;;;;;;;17.45;62.43;101351.65;1786289;79;21067;-81
2021/10/06 09:17:14;;;;;;;17.07;10.10;;;;;;;17.54;62.27;101363.69;1786147;80;21141;-82
2021/10/06 09:19:49;;;;;;;20.12;9.40;;;;;;;17.59;62.16;101366.39;1786387;79;22522;-82
2021/10/06 09:22:26;;;;;;;20.97;9.25;;;;;;;17.66;62.09;101372.17;1786240;80;21027;-82
2021/10/06 09:25:05;;;;;;;19.07;9.88;;;;;;;17.69;61.89;101377.53;1786152;78;21058;-82
2021/10/06 09:27:37;;;;;;;19.60;9.78;;;;;;;17.66;61.63;101383.73;1785865;78;21086;-82
2021/10/06 09:30:11;;;;;;;17.48;9.83;;;;;;;17.65;61.62;101390.38;1785112;79;21074;-82
2021/10/06 09:32:43;;;;;;;18.95;10.88;;;;;;;17.66;61.55;101394.38;1786292;79;21770;-82
2021/10/06 09:35:19;;;;;;;15.28;9.88;;;;;;;17.61;61.45;101396.57;1786293;80;22072;-82
2021/10/06 09:37:49;;;;;;;19.42;9.90;;;;;;;17.61;61.56;101402.77;1786445;79;21063;-82
2021/10/06 09:40:20;;;;;;;22.58;9.33;;;;;;;17.65;61.55;101403.69;1786183;79;21534;-82
2021/10/06 09:42:52;;;;;;;17.50;9.70;;;;;;;17.69;61.45;101397.50;1786384;80;21062;-82
2021/10/06 09:45:36;;;;;;;18.75;9.55;;;;;;;17.74;61.33;101408.19;1786349;80;21750;-82
2021/10/06 09:48:09;;;;;;;16.50;9.95;;;;;;;17.77;61.28;101404.19;1786110;79;21295;-82
2021/10/06 09:50:46;;;;;;;24.82;10.82;;;;;;;17.82;61.31;101410.45;1786516;80;21047;-82
2021/10/06 09:53:20;;;;;;;14.65;10.38;;;;;;;17.86;61.20;101414.94;1786072;79;21455;-81
2021/10/06 09:55:50;;;;;;;14.35;9.53;;;;;;;17.88;61.13;101419.38;1786109;78;21062;-81
2021/10/06 09:58:18;;;;;;;13.53;10.08;;;;;;;17.88;61.03;101415.83;1786355;79;21755;-82
2021/10/06 10:00:46;;;;;;;14.00;10.25;;;;;;;17.91;61.12;101422.97;1785997;80;21016;-81
2021/10/06 10:03:13;;;;;;;24.85;12.88;;;;;;;17.93;60.98;101422.08;1786106;79;21134;-81
2021/10/06 10:05:40;;;;;;;19.65;10.38;;;;;;;17.93;60.88;101430.52;1786119;80;21043;-81
2021/10/06 10:08:08;;;;;;;13.75;9.15;;;;;;;17.90;60.86;101425.16;1786395;79;21635;-82
2021/10/06 10:10:37;;;;;;;15.32;9.58;;;;;;;17.89;60.85;101432.28;1786285;79;21768;-81
2021/10/06 10:13:04;;;;;;;21.37;10.13;;;;;;;17.91;60.98;101434.50;1786224;79;21059;-81
2021/10/06 10:15:32;;;;;;;15.13;9.55;;;;;;;17.94;60.86;101433.17;1786114;79;21564;-81
2021/10/06 10:18:04;;;;;;;22.00;12.68;;;;;;;17.95;60.93;101432.30;1786248;79;21066;-81
2021/10/06 10:20:37;;;;;;;26.00;14.30;;;;;;;17.99;60.88;101427.88;1786276;80;21043;-81
2021/10/06 10:23:04;;;;;;;21.23;10.80;;;;;;;18.04;60.88;101435.47;1786473;79;21922;-81
2021/10/06 10:25:40;;;;;;;29.05;20.10;;;;;;;18.06;60.69;101432.37;1786237;79;21003;-81
2021/10/06 10:28:12;;;;;;;29.65;16.93;;;;;;;18.08;60.69;101440.37;1786120;78;21054;-81
2021/10/06 10:30:58;;;;;;;25.57;16.48;;;;;;;18.10;60.72;101428.83;1785665;79;21563;-81
2021/10/06 10:33:44;;;;;;;23.60;12.75;;;;;;;18.16;60.81;101432.84;1786478;80;21596;-81
2021/10/06 10:36:39;;;;;;;22.77;11.83;;;;;;;18.25;60.67;101441.33;1786255;79;21369;-81
2021/10/06 10:39:45;;;;;;;16.73;10.38;;;;;;;18.33;60.68;101442.70;1786329;79;21106;-81
2021/10/06 10:42:12;;;;;;;19.95;10.03;;;;;;;18.42;60.59;101452.06;1786464;79;21047;-81
2021/10/06 10:44:41;;;;;;;17.20;10.08;;;;;;;18.50;60.47;101438.75;1786300;79;21070;-81
2021/10/06 10:47:08;;;;;;;19.85;10.23;;;;;;;18.57;60.36;101441.45;1786736;79;21070;-81
2021/10/06 10:49:47;;;;;;;21.82;11.57;;;;;;;18.69;60.45;101441.91;1786415;78;22631;-81
2021/10/06 10:52:15;;;;;;;23.05;11.53;;;;;;;18.83;60.35;101448.22;1786298;78;21059;-81
2021/10/06 10:54:46;;;;;;;17.35;9.05;;;;;;;18.97;60.14;101447.34;1786623;79;21066;-81
2021/10/06 10:57:22;;;;;;;14.83;10.00;;;;;;;18.95;59.84;101459.34;1786270;80;21142;-81
2021/10/06 10:59:52;;;;;;;19.85;10.63;;;;;;;18.93;59.80;101457.57;1786024;80;21097;-81
2021/10/06 11:02:33;;;;;;;16.15;10.03;;;;;;;18.90;59.71;101463.80;1786072;79;21726;-81
2021/10/06 11:05:06;;;;;;;13.75;9.88;;;;;;;18.91;59.75;101464.69;1786232;80;21274;-81
2021/10/06 11:07:33;;;;;;;14.78;10.30;;;;;;;18.88;59.75;101465.55;1786659;79;21066;-81
2021/10/06 11:10:02;;;;;;;13.40;9.95;;;;;;;18.87;59.61;101480.23;1786504;80;21091;-81
2021/10/06 11:12:34;;;;;;;19.60;10.93;;;;;;;18.79;59.62;101492.19;1785052;78;21078;-81
2021/10/06 11:15:18;;;;;;;18.02;10.10;;;;;;;18.66;59.54;101496.59;1786430;80;21708;-81
2021/10/06 11:18:13;;;;;;;18.85;10.72;;;;;;;18.51;59.67;101507.20;1786566;79;21051;-81